Time;durP1;ratioP1;P1;durP2;ratioP2;P2;SDS_P1;SDS_P2;PMS_P1;PMS_P2;Temp;Humidity;BMP_temperature;BMP_pressure;BME280_temperature;BME280_humidity;BME280_pressure;Samples;Min_cycle;Max_cycle;Signal;HPM_P1;HPM_P2
2022/08/28 00:00:33;;;;;;;13.02;5.07;;;;;;;13.68;100.00;101864.00;4966919;28;20121;-71
2022/08/28 00:02:58;;;;;;;17.15;4.45;;;;;;;13.69;100.00;101863.03;4963487;28;20574;-72
2022/08/28 00:05:27;;;;;;;10.80;4.53;;;;;;;13.68;100.00;101861.31;4963891;28;20133;-71
2022/08/28 00:07:54;;;;;;;12.05;4.85;;;;;;;13.57;100.00;101868.28;4963327;28;20045;-71
2022/08/28 00:10:20;;;;;;;14.32;5.45;;;;;;;13.44;100.00;101868.97;4962426;28;20864;-71
2022/08/28 00:12:47;;;;;;;13.85;5.05;;;;;;;13.45;100.00;101872.53;4962321;28;20043;-72
2022/08/28 00:15:18;;;;;;;11.85;5.78;;;;;;;13.32;100.00;101868.84;4951699;28;20050;-72
2022/08/28 00:17:44;;;;;;;12.40;5.40;;;;;;;13.42;100.00;101865.53;4962872;28;20043;-73
2022/08/28 00:20:12;;;;;;;14.77;5.82;;;;;;;13.44;100.00;101876.16;4962374;28;20062;-72
2022/08/28 00:22:38;;;;;;;16.00;5.80;;;;;;;13.39;100.00;101879.09;4964178;28;20167;-71
2022/08/28 00:25:06;;;;;;;18.25;5.30;;;;;;;13.23;100.00;101875.59;4952816;28;20035;-71
2022/08/28 00:30:16;;;;;;;20.92;6.72;;;;;;;13.17;100.00;101881.28;4962546;28;20046;-72
2022/08/28 00:32:41;;;;;;;15.52;5.05;;;;;;;13.12;100.00;101878.00;4964729;28;20030;-72
2022/08/28 00:35:07;;;;;;;14.13;6.05;;;;;;;13.24;100.00;101880.00;4964793;28;20051;-73
2022/08/28 00:37:34;;;;;;;16.83;5.25;;;;;;;13.11;100.00;101877.16;4964847;28;20042;-72
2022/08/28 00:39:59;;;;;;;13.10;5.75;;;;;;;13.11;100.00;101882.50;4964356;28;20127;-71
2022/08/28 00:42:25;;;;;;;14.02;5.28;;;;;;;13.24;100.00;101884.50;4962877;28;20051;-71
2022/08/28 00:44:50;;;;;;;15.40;5.63;;;;;;;13.11;100.00;101876.28;4964271;28;20042;-71
2022/08/28 00:47:16;;;;;;;22.48;5.80;;;;;;;13.10;100.00;101877.22;4963769;28;20078;-70
2022/08/28 00:49:48;;;;;;;17.75;5.35;;;;;;;13.05;100.00;101879.28;4963809;28;20050;-72
2022/08/28 00:52:14;;;;;;;;;;;;;;;13.05;100.00;101873.94;4962985;28;20055;-71
2022/08/28 00:55:03;;;;;;;12.85;6.82;;;;;;;12.92;100.00;101869.28;4962305;28;20437;-70
2022/08/28 00:57:33;;;;;;;16.88;6.60;;;;;;;12.79;100.00;101870.06;4962419;28;20223;-71
2022/08/28 00:59:58;;;;;;;18.40;7.57;;;;;;;12.85;100.00;101870.59;4963753;28;20071;-72
2022/08/28 01:02:25;;;;;;;20.27;6.60;;;;;;;12.65;100.00;101876.19;4963303;28;20046;-72
2022/08/28 01:04:51;;;;;;;15.93;6.20;;;;;;;12.77;100.00;101874.66;4963668;28;20415;-71
2022/08/28 01:07:16;;;;;;;27.38;6.50;;;;;;;12.73;100.00;101878.44;4962973;28;20122;-71
2022/08/28 01:09:46;;;;;;;14.15;6.30;;;;;;;12.61;100.00;101880.00;4963212;28;20041;-72
2022/08/28 01:12:18;;;;;;;13.77;5.63;;;;;;;12.67;100.00;101885.00;4963527;28;20070;-73
2022/08/28 01:14:45;;;;;;;15.95;5.93;;;;;;;12.78;100.00;101881.72;4946189;28;20042;-72
2022/08/28 01:17:12;;;;;;;17.88;5.78;;;;;;;12.67;100.00;101880.50;4963971;28;20049;-71
2022/08/28 01:19:42;;;;;;;22.63;7.22;;;;;;;12.55;100.00;101883.00;4962339;28;20112;-72
2022/08/28 01:22:16;;;;;;;13.77;5.97;;;;;;;12.67;100.00;101883.19;4963723;28;20833;-71
2022/08/28 01:24:46;;;;;;;19.73;6.20;;;;;;;12.80;100.00;101882.50;4963799;28;20042;-73
2022/08/28 01:27:11;;;;;;;18.55;5.80;;;;;;;12.68;100.00;101881.38;4963698;28;20050;-72
2022/08/28 01:29:37;;;;;;;15.32;5.85;;;;;;;12.79;100.00;101875.41;4962503;28;20038;-72
2022/08/28 01:32:04;;;;;;;14.10;5.72;;;;;;;12.76;100.00;101887.19;4964291;28;20093;-72
2022/08/28 01:34:30;;;;;;;13.77;5.28;;;;;;;12.67;100.00;101896.56;4963494;28;20505;-73
2022/08/28 01:36:56;;;;;;;18.83;6.68;;;;;;;12.75;100.00;101887.25;4962058;28;20050;-73
2022/08/28 01:39:24;;;;;;;17.25;7.00;;;;;;;12.67;100.00;101890.34;4963324;28;20039;-72
2022/08/28 01:41:51;;;;;;;13.68;6.47;;;;;;;12.71;100.00;101883.91;4961928;28;20043;-72
2022/08/28 01:44:24;;;;;;;10.57;5.88;;;;;;;12.63;100.00;101891.47;4963604;28;20097;-71
2022/08/28 01:46:56;;;;;;;11.27;5.53;;;;;;;12.54;100.00;101892.84;4963405;28;20142;-73
2022/08/28 01:49:23;;;;;;;22.55;6.40;;;;;;;12.52;100.00;101889.38;4963111;28;20039;-72
2022/08/28 01:51:49;;;;;;;17.60;6.88;;;;;;;12.57;100.00;101897.16;4962809;28;20539;-73
2022/08/28 01:54:15;;;;;;;18.98;6.38;;;;;;;12.56;100.00;101888.28;4960619;28;20129;-71
2022/08/28 01:56:43;;;;;;;14.93;6.60;;;;;;;12.47;100.00;101887.91;4959950;28;20051;-72
2022/08/28 01:59:11;;;;;;;12.30;5.68;;;;;;;12.56;100.00;101890.97;4960756;28;20089;-73
2022/08/28 02:01:37;;;;;;;30.85;6.80;;;;;;;12.39;100.00;101894.53;4960508;28;20049;-72
2022/08/28 02:04:05;;;;;;;21.45;7.25;;;;;;;12.46;100.00;101896.91;4961270;28;20035;-73
2022/08/28 02:06:32;;;;;;;21.02;6.78;;;;;;;12.39;100.00;101897.19;4961622;28;20157;-71
2022/08/28 02:08:59;;;;;;;14.15;6.18;;;;;;;12.38;100.00;101900.84;4960144;28;20031;-71
2022/08/28 02:11:25;;;;;;;18.52;7.07;;;;;;;12.32;100.00;101894.97;4961766;28;20043;-71
2022/08/28 02:13:53;;;;;;;20.75;6.78;;;;;;;12.31;100.00;101903.94;4962128;28;20881;-72
2022/08/28 02:16:19;;;;;;;17.88;6.85;;;;;;;12.40;100.00;101903.44;4961428;28;20042;-72
2022/08/28 02:18:44;;;;;;;11.07;5.82;;;;;;;12.27;100.00;101905.03;4961203;28;20050;-72
2022/08/28 02:21:10;;;;;;;20.33;6.60;;;;;;;12.18;100.00;101901.03;4960730;28;20035;-71
2022/08/28 02:23:41;;;;;;;17.35;6.55;;;;;;;12.20;100.00;101912.53;4959169;28;20067;-71
2022/08/28 02:26:07;;;;;;;16.67;7.22;;;;;;;12.31;100.00;101907.47;4960933;28;20046;-74
2022/08/28 02:28:33;;;;;;;18.10;7.60;;;;;;;12.27;100.00;101905.03;4959281;28;20508;-71
2022/08/28 02:30:59;;;;;;;13.52;6.50;;;;;;;12.28;100.00;101904.94;4960792;28;20082;-71
2022/08/28 02:33:24;;;;;;;15.77;7.40;;;;;;;12.00;100.00;101910.91;4961538;28;20062;-71
2022/08/28 02:35:50;;;;;;;18.77;6.82;;;;;;;11.97;100.00;101902.19;4960370;28;20607;-72
2022/08/28 02:38:16;;;;;;;19.58;7.15;;;;;;;12.07;100.00;101906.09;4961389;28;20069;-72
2022/08/28 02:40:41;;;;;;;14.98;6.97;;;;;;;11.97;100.00;101915.53;4962091;28;20883;-72
2022/08/28 02:43:07;;;;;;;29.55;8.73;;;;;;;12.06;100.00;101913.25;4962159;28;20174;-71
2022/08/28 02:45:32;;;;;;;25.10;7.28;;;;;;;12.11;100.00;101913.88;4962137;28;20046;-71
2022/08/28 02:48:00;;;;;;;15.85;6.95;;;;;;;12.14;100.00;101913.69;4962594;28;20035;-71
2022/08/28 02:50:26;;;;;;;17.88;6.80;;;;;;;12.18;100.00;101912.59;4960133;28;20805;-70
2022/08/28 02:52:51;;;;;;;20.52;7.53;;;;;;;12.21;100.00;101910.72;4963316;28;20050;-72
2022/08/28 02:55:18;;;;;;;20.02;7.53;;;;;;;12.19;100.00;101908.97;4960042;28;20050;-71
2022/08/28 02:57:45;;;;;;;13.40;6.32;;;;;;;12.19;100.00;101910.78;4959165;28;20774;-72
2022/08/28 03:00:14;;;;;;;21.73;7.25;;;;;;;12.04;100.00;101914.25;4961301;28;20050;-71
2022/08/28 03:02:41;;;;;;;17.85;6.97;;;;;;;11.95;100.00;101906.72;4961655;28;20137;-71
2022/08/28 03:05:08;;;;;;;14.52;6.28;;;;;;;11.83;100.00;101905.56;4961778;28;20838;-72
2022/08/28 03:07:34;;;;;;;11.93;6.13;;;;;;;11.78;100.00;101911.09;4961568;28;20789;-71
2022/08/28 03:10:00;;;;;;;13.80;6.38;;;;;;;11.67;100.00;101911.66;4961301;28;20129;-71
2022/08/28 03:12:26;;;;;;;14.02;6.18;;;;;;;11.61;100.00;101913.78;4960203;28;20043;-70
2022/08/28 03:14:52;;;;;;;18.60;6.15;;;;;;;11.77;100.00;101924.56;4962671;28;20042;-71
2022/08/28 03:17:20;;;;;;;11.70;6.65;;;;;;;11.98;100.00;101915.44;4961899;28;20117;-70
2022/08/28 03:19:46;;;;;;;14.60;7.15;;;;;;;11.79;100.00;101914.63;4960619;28;20038;-72
2022/08/28 03:22:12;;;;;;;12.77;6.78;;;;;;;11.83;100.00;101913.56;4960568;28;20058;-71
2022/08/28 03:24:37;;;;;;;15.50;6.47;;;;;;;11.70;100.00;101918.66;4960865;28;20035;-70
2022/08/28 03:27:04;;;;;;;15.90;7.53;;;;;;;11.70;100.00;101913.31;4963898;28;20054;-70
2022/08/28 03:29:30;;;;;;;21.80;8.20;;;;;;;11.73;100.00;101922.97;4964951;28;20109;-72
2022/08/28 03:31:56;;;;;;;13.25;7.55;;;;;;;11.67;100.00;101916.13;4967039;28;20043;-71
2022/08/28 03:34:22;;;;;;;14.75;6.97;;;;;;;11.59;100.00;101921.84;4967456;28;20060;-71
2022/08/28 03:36:47;;;;;;;19.27;8.05;;;;;;;11.76;100.00;101920.16;4967646;28;20085;-71
2022/08/28 03:39:13;;;;;;;15.40;7.18;;;;;;;11.68;100.00;101915.19;4966745;28;20062;-74
2022/08/28 03:41:39;;;;;;;23.63;7.85;;;;;;;11.71;100.00;101920.38;4965140;28;20116;-72
2022/08/28 03:44:04;;;;;;;17.25;7.93;;;;;;;11.69;100.00;101919.59;4965119;28;20509;-71
2022/08/28 03:46:32;;;;;;;16.13;7.88;;;;;;;11.74;100.00;101925.56;4965883;28;20053;-71
2022/08/28 03:48:58;;;;;;;16.55;7.93;;;;;;;11.71;100.00;101920.38;4966113;28;20046;-73
2022/08/28 03:51:26;;;;;;;12.10;6.30;;;;;;;11.60;100.00;101923.59;4965122;28;20104;-69
2022/08/28 03:53:52;;;;;;;13.10;6.78;;;;;;;11.52;100.00;101932.94;4965040;28;20113;-71
2022/08/28 03:56:26;;;;;;;13.45;6.53;;;;;;;11.50;100.00;101929.50;4946934;28;20039;-71
2022/08/28 03:58:56;;;;;;;14.07;7.05;;;;;;;11.23;100.00;101934.34;4964585;28;20372;-72
2022/08/28 04:01:21;;;;;;;9.02;5.75;;;;;;;11.23;100.00;101943.22;4962954;28;20042;-71
2022/08/28 04:03:47;;;;;;;10.52;5.85;;;;;;;11.17;100.00;101940.00;4963318;28;20860;-71
2022/08/28 04:06:13;;;;;;;11.70;5.95;;;;;;;11.04;100.00;101935.22;4963119;28;20050;-71
2022/08/28 04:08:39;;;;;;;11.98;5.85;;;;;;;11.01;100.00;101937.22;4964978;28;20748;-71
2022/08/28 04:11:05;;;;;;;11.75;5.03;;;;;;;11.01;100.00;101940.75;4963612;28;20051;-71
2022/08/28 04:13:31;;;;;;;5.78;3.50;;;;;;;10.98;100.00;101948.00;4965127;28;20038;-69
2022/08/28 04:16:02;;;;;;;8.30;4.18;;;;;;;10.96;100.00;101944.56;4963074;28;20039;-72
2022/08/28 04:18:29;;;;;;;13.48;4.93;;;;;;;11.00;100.00;101946.16;4963527;28;20447;-71
2022/08/28 04:21:04;;;;;;;7.13;4.22;;;;;;;10.90;100.00;101951.06;4962995;28;20496;-72
2022/08/28 04:23:30;;;;;;;10.55;4.63;;;;;;;10.91;100.00;101944.78;4966446;28;20031;-72
2022/08/28 04:25:56;;;;;;;7.55;4.13;;;;;;;10.79;100.00;101954.22;4965497;28;20105;-71
2022/08/28 04:28:23;;;;;;;10.07;5.10;;;;;;;10.78;100.00;101954.28;4963472;28;20442;-71
2022/08/28 04:30:53;;;;;;;7.30;4.70;;;;;;;10.81;100.00;101963.03;4964675;28;20140;-71
2022/08/28 04:33:20;;;;;;;12.25;5.72;;;;;;;10.82;100.00;101964.75;4965219;28;20043;-71
2022/08/28 04:35:45;;;;;;;13.82;5.45;;;;;;;10.92;100.00;101967.00;4967706;28;20359;-71
2022/08/28 04:38:11;;;;;;;14.52;5.95;;;;;;;10.90;100.00;101964.41;4968018;28;20042;-71
2022/08/28 04:40:39;;;;;;;10.13;5.38;;;;;;;10.81;100.00;101964.81;4968236;28;20042;-71
2022/08/28 04:43:06;;;;;;;14.18;4.97;;;;;;;10.72;100.00;101965.25;4966644;28;20047;-71
2022/08/28 04:45:31;;;;;;;10.48;5.55;;;;;;;10.61;100.00;101966.59;4966485;28;20100;-71
2022/08/28 04:47:57;;;;;;;8.82;4.65;;;;;;;10.60;100.00;101967.53;4966971;28;20049;-71
2022/08/28 04:50:22;;;;;;;7.85;4.72;;;;;;;10.74;100.00;101968.69;4968198;28;20054;-71
2022/08/28 04:52:50;;;;;;;11.27;5.20;;;;;;;10.65;100.00;101971.81;4968090;28;20153;-71
2022/08/28 04:55:15;;;;;;;6.85;4.50;;;;;;;10.68;100.00;101977.84;4967308;28;20066;-70
2022/08/28 04:57:41;;;;;;;10.88;5.20;;;;;;;10.78;100.00;101976.50;4968505;28;20046;-72
2022/08/28 05:00:08;;;;;;;9.82;4.72;;;;;;;10.71;100.00;101975.06;4970373;28;20047;-70
2022/08/28 05:02:34;;;;;;;7.13;4.20;;;;;;;10.74;100.00;101977.56;4969597;28;20047;-73
2022/08/28 05:05:00;;;;;;;8.93;4.93;;;;;;;10.71;100.00;101976.84;4968792;28;20120;-70
2022/08/28 05:07:25;;;;;;;11.60;5.65;;;;;;;10.67;100.00;101986.78;4967168;28;20039;-70
2022/08/28 05:09:53;;;;;;;11.32;4.90;;;;;;;10.88;100.00;101975.13;4968179;28;20042;-71
2022/08/28 05:12:19;;;;;;;9.25;5.15;;;;;;;11.03;100.00;101986.91;4965403;28;20043;-71
2022/08/28 05:14:45;;;;;;;8.32;4.50;;;;;;;11.15;100.00;101990.81;4963135;28;20485;-71
2022/08/28 05:17:14;;;;;;;12.95;6.18;;;;;;;11.27;100.00;101986.69;4963508;28;20054;-71
2022/08/28 05:19:40;;;;;;;10.23;5.30;;;;;;;11.22;100.00;101984.22;4963061;28;20063;-71
2022/08/28 05:22:08;;;;;;;11.65;6.18;;;;;;;11.51;100.00;101980.16;4964674;28;20043;-70
2022/08/28 05:24:35;;;;;;;15.18;5.88;;;;;;;11.63;100.00;101976.00;4964568;28;20061;-71
2022/08/28 05:27:02;;;;;;;15.93;7.25;;;;;;;11.73;100.00;101968.41;4964464;28;20034;-71
2022/08/28 05:29:27;;;;;;;14.48;5.80;;;;;;;11.95;100.00;101976.22;4964624;28;20058;-72
2022/08/28 05:31:53;;;;;;;22.45;6.60;;;;;;;12.02;100.00;101975.84;4963544;28;20550;-71
2022/08/28 05:34:19;;;;;;;12.10;5.80;;;;;;;12.15;100.00;101974.28;4963715;28;20101;-70
2022/08/28 05:36:45;;;;;;;17.95;6.07;;;;;;;12.31;100.00;101969.00;4962761;28;20150;-70
2022/08/28 05:39:11;;;;;;;13.25;6.07;;;;;;;12.31;100.00;101971.66;4963880;28;20094;-70
2022/08/28 05:41:39;;;;;;;20.38;5.68;;;;;;;12.51;100.00;101975.09;4962490;28;20068;-72
2022/08/28 05:44:07;;;;;;;15.60;6.05;;;;;;;12.29;100.00;101986.91;4962770;28;20034;-71
2022/08/28 05:46:34;;;;;;;14.02;5.13;;;;;;;12.47;100.00;101971.72;4963051;28;20030;-72
2022/08/28 05:49:00;;;;;;;19.13;5.70;;;;;;;12.69;100.00;101984.78;4964647;28;20039;-71
2022/08/28 05:51:27;;;;;;;18.63;5.70;;;;;;;12.76;100.00;101988.03;4964144;28;20061;-71
2022/08/28 05:53:53;;;;;;;15.02;5.93;;;;;;;12.74;100.00;101993.44;4963496;28;20129;-72
2022/08/28 05:56:31;;;;;;;13.50;5.70;;;;;;;12.74;100.00;101992.56;4964118;28;20062;-72
2022/08/28 05:58:59;;;;;;;13.98;6.05;;;;;;;13.02;100.00;101991.94;4962405;28;20046;-71
2022/08/28 06:01:28;;;;;;;8.50;5.47;;;;;;;13.05;100.00;101994.44;4962469;28;20134;-70
2022/08/28 06:04:06;;;;;;;10.85;5.65;;;;;;;13.00;100.00;101997.38;4963935;28;20034;-71
2022/08/28 06:06:34;;;;;;;15.27;6.50;;;;;;;13.27;100.00;101996.84;4912245;29;20960;-70
2022/08/28 06:09:09;;;;;;;16.08;5.80;;;;;;;13.28;100.00;101994.06;4922774;29;20122;-70
2022/08/28 06:11:37;;;;;;;10.57;5.60;;;;;;;13.49;100.00;101991.97;4923119;29;20054;-71
2022/08/28 06:14:08;;;;;;;17.63;5.70;;;;;;;13.62;100.00;101997.50;4923607;29;20039;-71
2022/08/28 06:16:35;;;;;;;16.35;5.65;;;;;;;14.29;100.00;101988.16;4923660;29;20114;-72
2022/08/28 06:19:00;;;;;;;11.98;4.57;;;;;;;14.14;100.00;101997.97;4924061;29;20067;-71
2022/08/28 06:21:27;;;;;;;10.20;4.97;;;;;;;14.19;100.00;101995.03;4921989;29;20464;-71
2022/08/28 06:23:53;;;;;;;17.75;5.88;;;;;;;14.33;100.00;101994.19;4906492;29;20485;-70
2022/08/28 06:26:18;;;;;;;11.15;4.80;;;;;;;14.46;100.00;101995.19;4924084;29;20055;-71
2022/08/28 06:28:44;;;;;;;16.88;5.32;;;;;;;14.60;100.00;101994.34;4924001;29;20035;-71
2022/08/28 06:31:09;;;;;;;12.10;4.32;;;;;;;14.76;100.00;102006.75;4922554;29;20035;-72
2022/08/28 06:33:35;;;;;;;13.93;5.25;;;;;;;14.83;100.00;102009.03;4922694;29;20051;-70
2022/08/28 06:36:03;;;;;;;10.77;4.40;;;;;;;15.05;100.00;102013.91;4922759;29;20039;-71
2022/08/28 06:38:29;;;;;;;10.73;3.88;;;;;;;15.37;100.00;102018.09;4924170;29;20097;-72
2022/08/28 06:40:55;;;;;;;9.98;4.05;;;;;;;15.50;100.00;102010.94;4924016;29;20536;-72
2022/08/28 06:43:24;;;;;;;8.80;4.10;;;;;;;15.98;100.00;102006.00;4924461;29;20500;-70
2022/08/28 06:45:53;;;;;;;11.50;3.75;;;;;;;16.52;100.00;102007.72;4906913;29;20048;-71
2022/08/28 06:48:20;;;;;;;11.75;4.32;;;;;;;16.65;100.00;102008.56;4922623;29;20040;-72
2022/08/28 06:50:54;;;;;;;8.98;3.90;;;;;;;17.13;95.91;102006.09;4924280;29;20046;-71
2022/08/28 06:53:23;;;;;;;7.82;3.05;;;;;;;17.47;96.36;102000.91;4924861;29;20138;-72
2022/08/28 06:56:06;;;;;;;9.65;3.47;;;;;;;17.83;91.67;102000.91;4922965;29;20047;-71
2022/08/28 06:58:32;;;;;;;9.23;3.80;;;;;;;17.52;92.72;102002.31;4923061;29;20095;-71
2022/08/28 07:01:09;;;;;;;13.82;3.35;;;;;;;17.66;91.12;102006.66;4924806;29;20054;-72
2022/08/28 07:03:35;;;;;;;15.52;3.97;;;;;;;18.26;89.71;102004.84;4923251;29;20134;-72
2022/08/28 07:06:03;;;;;;;10.18;4.03;;;;;;;18.08;92.94;102008.00;4960128;28;20135;-71
2022/08/28 07:08:30;;;;;;;11.65;3.83;;;;;;;18.85;85.94;102004.72;4967199;28;20093;-72
2022/08/28 07:10:57;;;;;;;11.05;3.13;;;;;;;18.70;85.77;101998.69;4965150;28;20121;-72
2022/08/28 07:13:23;;;;;;;9.02;4.20;;;;;;;18.93;82.33;102002.28;4965212;28;20030;-71
2022/08/28 07:15:48;;;;;;;8.73;3.50;;;;;;;18.98;83.80;102002.78;4966124;28;20400;-72
2022/08/28 07:18:15;;;;;;;11.25;3.20;;;;;;;19.40;83.99;101997.56;4964722;28;20047;-71
2022/08/28 07:20:40;;;;;;;8.88;3.15;;;;;;;19.19;82.09;102002.88;4964456;28;20697;-70
2022/08/28 07:23:06;;;;;;;9.35;2.90;;;;;;;18.88;83.66;102008.06;4963463;28;20130;-71
2022/08/28 07:25:32;;;;;;;9.13;2.42;;;;;;;19.26;78.64;102014.03;4963757;28;20068;-71
2022/08/28 07:27:58;;;;;;;7.57;2.45;;;;;;;19.29;80.72;102011.09;4963704;28;20432;-72
2022/08/28 07:30:24;;;;;;;9.77;2.70;;;;;;;19.33;78.29;102016.16;4947745;28;20042;-72
2022/08/28 07:32:49;;;;;;;9.43;2.92;;;;;;;19.61;79.45;102017.44;4963875;28;20133;-72
2022/08/28 07:35:16;;;;;;;7.72;2.88;;;;;;;20.12;78.40;102003.22;4947745;28;20066;-71
2022/08/28 07:37:42;;;;;;;11.30;2.45;;;;;;;19.53;78.50;102019.91;4963295;28;20050;-70
2022/08/28 07:40:09;;;;;;;6.82;2.63;;;;;;;19.80;77.51;102013.22;4963609;28;20750;-72
2022/08/28 07:45:20;;;;;;;10.23;3.28;;;;;;;19.79;76.59;102015.06;4965221;28;20043;-73
2022/08/28 07:47:46;;;;;;;10.88;2.75;;;;;;;20.20;71.97;102009.84;4963666;28;20054;-70
2022/08/28 07:50:11;;;;;;;9.48;1.88;;;;;;;19.82;73.25;102017.50;4965144;28;20050;-72
2022/08/28 07:52:37;;;;;;;6.05;2.08;;;;;;;19.27;74.65;102013.91;4964565;28;20775;-72
2022/08/28 07:55:04;;;;;;;19.42;3.70;;;;;;;20.15;75.93;102007.53;4963384;28;20094;-71
2022/08/28 07:57:30;;;;;;;5.25;2.03;;;;;;;19.85;72.21;102022.69;4964416;28;20085;-71
2022/08/28 07:59:57;;;;;;;13.93;2.92;;;;;;;19.35;72.80;102016.88;4964997;28;20039;-70
2022/08/28 08:02:22;;;;;;;2.95;1.73;;;;;;;19.21;75.00;102017.13;4964316;28;20043;-72
2022/08/28 08:04:48;;;;;;;10.88;2.10;;;;;;;19.56;73.71;102016.09;4962807;28;20051;-70
2022/08/28 08:07:13;;;;;;;7.72;2.38;;;;;;;19.69;74.61;102022.25;4964553;28;20108;-72
2022/08/28 08:09:42;;;;;;;14.00;2.70;;;;;;;19.28;76.19;102026.47;4946263;28;20647;-72
2022/08/28 08:12:09;;;;;;;9.00;2.20;;;;;;;19.47;70.57;102025.81;4964422;28;20222;-72
2022/08/28 08:14:35;;;;;;;8.25;2.97;;;;;;;19.83;69.95;102029.19;4962015;28;20042;-71
2022/08/28 08:17:02;;;;;;;9.02;2.20;;;;;;;19.72;70.52;102034.66;4962961;28;20105;-72
2022/08/28 08:19:28;;;;;;;9.73;1.58;;;;;;;19.50;70.80;102035.53;4945720;28;20039;-71
2022/08/28 08:21:54;;;;;;;8.05;2.47;;;;;;;19.72;69.75;102032.78;4962365;28;20450;-71
2022/08/28 08:24:21;;;;;;;8.90;2.42;;;;;;;20.29;69.74;102033.44;4964090;28;20126;-70
2022/08/28 08:26:48;;;;;;;17.20;2.38;;;;;;;20.60;67.00;102028.97;4963438;28;20046;-72
2022/08/28 08:29:14;;;;;;;9.25;2.15;;;;;;;19.59;70.44;102032.06;4967141;28;20038;-72
2022/08/28 08:31:39;;;;;;;8.32;2.60;;;;;;;19.41;70.65;102047.97;4963844;28;20046;-72
2022/08/28 08:34:06;;;;;;;8.77;1.63;;;;;;;19.64;69.23;102046.97;4964038;28;20054;-71
2022/08/28 08:36:34;;;;;;;4.82;1.48;;;;;;;18.58;72.49;102048.28;4963736;28;20046;-71
2022/08/28 08:39:00;;;;;;;8.00;1.90;;;;;;;19.39;70.60;102039.13;4964110;28;20456;-72
2022/08/28 08:41:33;;;;;;;11.27;3.08;;;;;;;20.03;70.49;102041.06;4964339;28;20046;-74
2022/08/28 08:44:18;;;;;;;11.65;2.10;;;;;;;20.66;66.27;102040.13;4962954;28;20035;-71
2022/08/28 08:46:56;;;;;;;6.57;1.73;;;;;;;20.91;64.39;102025.28;4964281;28;20559;-72
2022/08/28 08:49:25;;;;;;;7.93;1.70;;;;;;;21.46;66.87;102022.22;4962313;28;20034;-71
2022/08/28 08:52:01;;;;;;;7.15;2.00;;;;;;;21.12;64.45;102030.66;4962175;28;20101;-72
2022/08/28 08:54:26;;;;;;;6.35;2.03;;;;;;;21.30;63.44;102033.63;4961370;28;20046;-70
2022/08/28 08:56:54;;;;;;;10.25;1.98;;;;;;;20.37;63.54;102020.94;4962904;28;20035;-71
2022/08/28 08:59:28;;;;;;;7.38;1.60;;;;;;;21.18;65.39;102024.66;4960419;28;20046;-71
2022/08/28 09:02:10;;;;;;;9.57;1.65;;;;;;;20.73;63.25;102028.75;4961878;28;20070;-72
2022/08/28 09:04:53;;;;;;;4.72;1.38;;;;;;;20.33;62.71;102035.78;4960279;28;20063;-71
2022/08/28 09:07:43;;;;;;;4.53;1.67;;;;;;;20.67;64.98;102032.84;4961219;28;20121;-74
2022/08/28 09:10:11;;;;;;;11.02;2.35;;;;;;;20.86;62.93;102032.97;4948039;28;20142;-71
2022/08/28 09:12:48;;;;;;;9.75;2.45;;;;;;;20.42;64.00;102031.38;4961297;28;20027;-71
2022/08/28 09:15:43;;;;;;;10.90;1.40;;;;;;;19.66;64.29;102039.56;4960594;28;20125;-73
2022/08/28 09:18:18;;;;;;;9.05;2.08;;;;;;;19.60;65.30;102042.81;4959901;28;20074;-71
2022/08/28 09:20:49;;;;;;;3.45;1.45;;;;;;;19.99;65.72;102045.03;4964761;28;20050;-72
2022/08/28 09:23:15;;;;;;;3.50;1.17;;;;;;;20.57;67.01;102038.22;4963156;28;20955;-71
2022/08/28 09:25:43;;;;;;;6.20;1.63;;;;;;;20.84;64.13;102036.81;4960307;28;20045;-70
2022/08/28 09:28:13;;;;;;;5.68;1.52;;;;;;;21.35;67.92;102036.78;4942673;28;20091;-72
2022/08/28 09:30:39;;;;;;;10.95;1.95;;;;;;;21.09;64.05;102024.66;4958855;28;20750;-72
2022/08/28 09:33:06;;;;;;;5.38;1.17;;;;;;;20.22;65.48;102037.66;4964495;28;20786;-72
2022/08/28 09:35:35;;;;;;;9.00;2.38;;;;;;;20.10;66.86;102045.84;4961143;28;20046;-71
2022/08/28 09:38:19;;;;;;;10.00;2.10;;;;;;;20.01;64.88;102043.91;4958232;28;20072;-71
2022/08/28 09:43:30;;;;;;;6.50;1.50;;;;;;;20.16;67.30;102030.91;4960293;28;20066;-72
2022/08/28 09:46:04;;;;;;;5.82;1.92;;;;;;;20.00;66.56;102041.34;4964644;28;20038;-70
2022/08/28 09:48:37;;;;;;;4.63;1.60;;;;;;;19.74;65.80;102036.25;4967539;28;20042;-72
2022/08/28 09:51:09;;;;;;;5.93;1.40;;;;;;;19.97;65.19;102042.44;4958363;28;20066;-71
2022/08/28 09:53:57;;;;;;;4.68;1.77;;;;;;;20.41;65.37;102035.09;4958381;28;20532;-71
2022/08/28 09:56:32;;;;;;;6.78;1.77;;;;;;;20.51;64.88;102027.91;4948321;28;20047;-72
2022/08/28 09:59:11;;;;;;;2.03;1.33;;;;;;;20.72;61.45;102022.47;4958349;28;20038;-72
2022/08/28 10:01:47;;;;;;;9.07;1.63;;;;;;;20.92;62.71;102029.72;4958740;28;20058;-71
2022/08/28 10:04:14;;;;;;;3.65;1.60;;;;;;;20.90;59.20;102030.84;4958670;28;20840;-71
2022/08/28 10:06:40;;;;;;;7.50;1.52;;;;;;;20.08;58.79;102036.09;4963056;28;20089;-72
2022/08/28 10:09:13;;;;;;;4.43;1.60;;;;;;;20.72;61.97;102035.16;4972496;28;20128;-73
2022/08/28 10:12:10;;;;;;;7.15;1.30;;;;;;;21.29;59.31;102031.88;4971342;28;20038;-71
2022/08/28 10:15:13;;;;;;;5.47;1.92;;;;;;;20.72;58.36;102038.75;4969186;28;20043;-72
2022/08/28 10:18:17;;;;;;;5.22;1.58;;;;;;;20.90;56.37;102036.28;4938732;28;20480;-70
2022/08/28 10:21:02;;;;;;;3.60;1.60;;;;;;;21.80;58.43;102025.44;4952106;28;20055;-72
2022/08/28 10:23:57;;;;;;;2.53;1.23;;;;;;;22.17;58.64;102031.03;4972148;28;20062;-73
2022/08/28 10:26:29;;;;;;;5.80;1.10;;;;;;;22.06;54.29;102024.88;4957063;28;20054;-72
2022/08/28 10:29:16;;;;;;;6.57;1.42;;;;;;;21.93;54.96;102034.16;4959859;28;20038;-72
2022/08/28 10:32:03;;;;;;;6.07;1.20;;;;;;;22.62;55.43;102030.41;4962286;28;20054;-71
2022/08/28 10:34:29;;;;;;;8.13;1.52;;;;;;;22.17;55.39;102020.19;4967971;28;20693;-72
2022/08/28 10:37:36;;;;;;;8.35;2.03;;;;;;;21.84;54.81;102023.28;4959052;28;20045;-71
2022/08/28 10:40:14;;;;;;;3.88;1.40;;;;;;;22.39;52.67;102027.19;4912724;29;20114;-71
2022/08/28 10:43:05;;;;;;;5.03;1.88;;;;;;;21.37;54.54;102034.78;4910337;29;20047;-71
2022/08/28 10:45:32;;;;;;;5.50;1.63;;;;;;;21.69;58.38;102036.44;4925163;29;20425;-71
2022/08/28 10:48:08;;;;;;;4.82;1.38;;;;;;;21.66;55.45;102034.00;4918948;29;20957;-71
2022/08/28 10:51:06;;;;;;;6.68;1.90;;;;;;;21.58;56.53;102028.38;4923102;29;20130;-72
2022/08/28 10:53:42;;;;;;;5.47;1.52;;;;;;;22.17;57.93;102031.03;4908179;29;20044;-71
2022/08/28 10:56:14;;;;;;;6.35;1.38;;;;;;;22.43;56.41;102035.88;4924266;29;20063;-70
2022/08/28 10:58:40;;;;;;;3.75;1.15;;;;;;;22.67;56.25;102033.53;4923305;29;20111;-72
2022/08/28 11:01:10;;;;;;;2.83;1.17;;;;;;;23.04;52.92;102021.84;4906380;29;20051;-70
2022/08/28 11:03:43;;;;;;;3.60;1.50;;;;;;;23.14;54.78;102030.81;4928960;29;20141;-71
2022/08/28 11:06:37;;;;;;;8.30;2.00;;;;;;;22.85;53.96;102019.19;4909552;29;20215;-71
2022/08/28 11:09:24;;;;;;;5.50;1.77;;;;;;;22.74;54.08;102021.09;4907280;29;20746;-71
2022/08/28 11:11:57;;;;;;;4.25;1.52;;;;;;;22.67;53.01;102016.38;4920384;29;20093;-71
2022/08/28 11:14:32;;;;;;;7.43;1.38;;;;;;;22.26;54.04;102026.63;4907486;29;20094;-72
2022/08/28 11:17:10;;;;;;;4.68;2.00;;;;;;;23.04;54.55;102021.84;4937597;28;20051;-71
2022/08/28 11:19:52;;;;;;;4.13;1.17;;;;;;;22.50;51.37;102026.16;4965731;28;20038;-72
2022/08/28 11:22:37;;;;;;;3.97;1.73;;;;;;;22.56;52.48;102020.13;4955532;28;20039;-72
2022/08/28 11:25:24;;;;;;;7.97;2.10;;;;;;;21.51;55.14;102022.66;4972500;28;20100;-71
2022/08/28 11:28:37;;;;;;;3.88;1.40;;;;;;;21.46;55.86;102030.38;4967587;28;20034;-70
2022/08/28 11:31:03;;;;;;;4.78;2.05;;;;;;;22.18;53.41;102031.91;4940816;28;20149;-71
2022/08/28 11:33:51;;;;;;;3.28;1.52;;;;;;;22.72;52.02;102017.63;4962709;28;20058;-71
2022/08/28 11:36:20;;;;;;;2.03;1.30;;;;;;;22.67;53.18;102016.38;4969209;28;20093;-72